Time;durP1;ratioP1;P1;durP2;ratioP2;P2;SDS_P1;SDS_P2;PMS_P1;PMS_P2;Temp;Humidity;BMP_temperature;BMP_pressure;BME280_temperature;BME280_humidity;BME280_pressure;Samples;Min_cycle;Max_cycle;Signal;HPM_P1;HPM_P2
2022/04/30 08:23:36;;;;;;;6.20;4.43;;;20.50;99.90;;;;;;4935076;29;20448;-89
2022/04/30 08:26:03;;;;;;;11.75;4.65;;;20.70;99.90;;;;;;4905223;29;20111;-87
2022/04/30 08:28:30;;;;;;;11.68;4.85;;;20.70;99.90;;;;;;4904474;29;20023;-89
2022/04/30 08:31:00;;;;;;;11.30;5.72;;;21.00;99.90;;;;;;4893299;29;20560;-89
2022/04/30 08:33:26;;;;;;;11.35;4.57;;;20.20;99.90;;;;;;4905078;29;20048;-87
2022/04/30 08:35:55;;;;;;;11.18;4.38;;;20.50;99.90;;;;;;4926786;29;20099;-87
2022/04/30 08:38:22;;;;;;;9.38;4.70;;;20.60;99.90;;;;;;4910991;29;20031;-87
2022/04/30 08:40:49;;;;;;;8.95;4.40;;;20.70;99.90;;;;;;4894006;29;20036;-87
2022/04/30 08:43:17;;;;;;;13.45;5.30;;;21.10;99.90;;;;;;4909318;29;20051;-88
2022/04/30 08:45:45;;;;;;;9.82;4.68;;;20.80;99.90;;;;;;4895841;29;20111;-88
2022/04/30 08:48:14;;;;;;;12.40;4.97;;;21.10;99.90;;;;;;4911947;29;20032;-87
2022/04/30 08:50:45;;;;;;;11.82;4.95;;;20.60;99.90;;;;;;4893873;29;20139;-86
2022/04/30 08:53:13;;;;;;;8.25;4.32;;;20.50;99.90;;;;;;4898598;29;20032;-85
2022/04/30 08:55:39;;;;;;;13.90;5.30;;;20.80;99.90;;;;;;4893195;29;20482;-89
2022/04/30 08:58:05;;;;;;;15.15;4.85;;;21.40;99.90;;;;;;4910530;29;20051;-87
2022/04/30 09:00:42;;;;;;;13.82;5.68;;;21.50;99.90;;;;;;4893959;29;20063;-88
2022/04/30 09:03:12;;;;;;;12.45;4.70;;;20.70;99.90;;;;;;4896100;29;20102;-88
2022/04/30 09:05:38;;;;;;;10.85;5.38;;;21.00;99.90;;;;;;4893515;29;20032;-90
2022/04/30 09:08:05;;;;;;;11.85;4.93;;;20.50;99.90;;;;;;4892348;29;20106;-90
2022/04/30 09:10:34;;;;;;;8.85;4.47;;;20.80;99.90;;;;;;4909969;29;20031;-89
2022/04/30 09:13:16;;;;;;;10.82;5.05;;;20.60;99.90;;;;;;4893036;29;20048;-89
2022/04/30 09:15:46;;;;;;;11.32;4.85;;;20.60;99.90;;;;;;4908413;29;20131;-90
2022/04/30 09:18:14;;;;;;;12.10;4.95;;;20.70;99.90;;;;;;4909288;29;20091;-88
2022/04/30 09:20:54;;;;;;;11.52;5.15;;;21.00;99.90;;;;;;4910424;29;20036;-88
2022/04/30 09:23:27;;;;;;;14.50;4.90;;;20.80;99.90;;;;;;4923802;29;20059;-88
2022/04/30 09:25:58;;;;;;;11.95;5.32;;;20.90;99.90;;;;;;4923417;29;20122;-88
2022/04/30 09:28:30;;;;;;;12.60;4.78;;;21.10;99.90;;;;;;4916577;29;20107;-88
2022/04/30 09:31:13;;;;;;;17.45;5.43;;;20.90;99.90;;;;;;4924388;29;20027;-88
2022/04/30 09:37:41;;;;;;;11.00;4.53;;;21.40;99.90;;;;;;4927561;29;20031;-89
2022/04/30 09:39:35;;;;;;;15.35;5.10;;;21.50;99.90;;;;;;4926135;29;20053;-88
2022/04/30 09:42:02;;;;;;;10.80;5.10;;;21.30;99.90;;;;;;4915239;29;20482;-88
2022/04/30 09:44:29;;;;;;;10.35;5.18;;;21.30;99.90;;;;;;4924364;29;20031;-89
2022/04/30 09:46:56;;;;;;;11.40;4.88;;;20.70;99.90;;;;;;4915748;29;20039;-89
2022/04/30 09:55:01;;;;;;;14.70;5.13;;;21.00;99.90;;;;;;4936177;29;20031;-88
2022/04/30 09:57:38;;;;;;;6.50;4.38;;;21.50;99.90;;;;;;4920736;29;20135;-88
2022/04/30 10:00:08;;;;;;;12.85;4.63;;;21.60;99.90;;;;;;4919743;29;20047;-88
2022/04/30 10:02:47;;;;;;;12.02;4.65;;;21.70;99.90;;;;;;4920565;29;20076;-87
2022/04/30 10:05:15;;;;;;;14.50;4.83;;;22.00;99.90;;;;;;4919836;29;20031;-88
2022/04/30 10:07:42;;;;;;;10.48;5.20;;;21.60;99.90;;;;;;4919527;29;20035;-88
2022/04/30 10:10:21;;;;;;;9.75;4.80;;;21.30;99.90;;;;;;4935669;29;20040;-88
2022/04/30 10:12:56;;;;;;;14.57;5.40;;;21.00;99.90;;;;;;4935400;29;20432;-88
2022/04/30 10:15:37;;;;;;;11.40;5.00;;;21.20;99.90;;;;;;4920024;29;20436;-89
2022/04/30 10:18:07;;;;;;;12.73;5.18;;;21.60;99.90;;;;;;4919825;29;20032;-89
2022/04/30 10:20:35;;;;;;;10.90;5.35;;;20.70;99.90;;;;;;4935543;29;20071;-90
2022/04/30 10:23:04;;;;;;;15.32;5.60;;;21.30;99.90;;;;;;4919531;29;20040;-90
2022/04/30 10:25:42;;;;;;;9.82;5.20;;;21.20;99.90;;;;;;4935437;29;20040;-89
2022/04/30 10:28:18;;;;;;;10.18;4.97;;;20.90;99.90;;;;;;4919684;29;20028;-88
2022/04/30 10:30:57;;;;;;;9.57;5.43;;;21.10;99.90;;;;;;4919644;29;20051;-88
2022/04/30 10:33:25;;;;;;;13.55;6.03;;;21.40;99.90;;;;;;4935605;29;20100;-91
2022/04/30 10:36:07;;;;;;;11.82;5.38;;;21.60;99.90;;;;;;4920789;29;20056;-90
2022/04/30 10:38:34;;;;;;;8.68;4.70;;;21.30;99.90;;;;;;4938883;29;20046;-91
2022/04/30 10:41:03;;;;;;;12.73;4.93;;;21.50;99.90;;;;;;4923100;29;20040;-88
2022/04/30 10:43:35;;;;;;;15.10;5.68;;;21.60;99.90;;;;;;4940486;29;20070;-90
2022/04/30 10:46:13;;;;;;;17.58;5.60;;;21.40;99.90;;;;;;4941647;29;20038;-90
2022/04/30 10:48:41;;;;;;;16.23;5.40;;;21.20;99.90;;;;;;4942167;29;20038;-91
2022/04/30 10:51:17;;;;;;;16.65;5.80;;;21.60;99.90;;;;;;4930516;29;20030;-91
2022/04/30 10:53:46;;;;;;;12.65;5.97;;;21.20;99.90;;;;;;4932296;29;20032;-91
2022/04/30 10:56:17;;;;;;;11.45;5.72;;;21.20;99.90;;;;;;4927322;29;20024;-87
2022/04/30 10:58:44;;;;;;;11.68;5.22;;;21.60;99.90;;;;;;4923415;29;20494;-87
2022/04/30 11:01:14;;;;;;;13.77;5.70;;;21.90;99.90;;;;;;4923310;29;20106;-88
2022/04/30 11:03:43;;;;;;;11.30;5.45;;;21.90;99.90;;;;;;4939229;29;20028;-88
2022/04/30 11:06:11;;;;;;;14.30;5.07;;;21.50;99.90;;;;;;4922885;29;20412;-87
2022/04/30 11:08:38;;;;;;;11.80;5.93;;;21.40;99.90;;;;;;4941420;29;20035;-87
2022/04/30 11:11:05;;;;;;;9.93;5.13;;;21.60;99.90;;;;;;4923944;29;20043;-84
2022/04/30 11:13:31;;;;;;;15.73;5.20;;;21.60;99.90;;;;;;4943856;29;20032;-86
2022/04/30 11:15:59;;;;;;;9.82;5.13;;;21.40;99.90;;;;;;4923672;29;20085;-86
2022/04/30 11:18:26;;;;;;;16.08;5.25;;;21.30;99.90;;;;;;4922460;29;20485;-86
2022/04/30 11:21:00;;;;;;;12.23;5.35;;;21.40;99.90;;;;;;4922245;29;20437;-86
2022/04/30 11:23:28;;;;;;;13.20;5.95;;;21.50;99.90;;;;;;4922517;29;20044;-86
2022/04/30 11:25:58;;;;;;;10.27;5.40;;;21.40;99.90;;;;;;4923131;29;20043;-87
2022/04/30 11:28:31;;;;;;;25.88;7.07;;;21.80;99.90;;;;;;4923534;29;20028;-86
2022/04/30 11:31:01;;;;;;;15.90;6.03;;;22.10;99.90;;;;;;4922826;29;20098;-87
2022/04/30 11:33:37;;;;;;;15.25;5.28;;;21.70;99.90;;;;;;4923631;29;20031;-87
2022/04/30 11:36:04;;;;;;;10.38;5.50;;;21.50;99.90;;;;;;4921924;29;20044;-86
2022/04/30 11:38:31;;;;;;;10.85;5.03;;;21.40;99.90;;;;;;4922067;29;20465;-86
2022/04/30 11:41:10;;;;;;;9.32;5.60;;;21.40;99.90;;;;;;4937502;29;20044;-85
2022/04/30 11:43:36;;;;;;;9.13;5.35;;;21.50;99.90;;;;;;4937492;29;20043;-86
2022/04/30 11:46:06;;;;;;;9.27;5.13;;;21.90;99.90;;;;;;4921937;29;20051;-83
2022/04/30 11:48:39;;;;;;;10.65;5.50;;;22.50;99.90;;;;;;4936686;29;20066;-84
2022/04/30 11:51:07;;;;;;;14.33;5.47;;;21.70;99.90;;;;;;4921389;29;20032;-83
2022/04/30 11:53:35;;;;;;;13.25;4.93;;;21.80;99.90;;;;;;4921460;29;20038;-84
2022/04/30 11:56:03;;;;;;;10.18;5.28;;;22.30;99.90;;;;;;4921947;29;20035;-84
2022/04/30 11:58:44;;;;;;;14.00;5.53;;;21.50;99.90;;;;;;4921272;29;20055;-86
2022/04/30 12:01:25;;;;;;;8.30;4.78;;;21.00;99.90;;;;;;4937506;29;20043;-85
2022/04/30 12:03:58;;;;;;;15.02;5.57;;;21.50;99.90;;;;;;4921381;29;20070;-85
2022/04/30 12:06:29;;;;;;;13.82;5.57;;;21.80;99.90;;;;;;4938975;29;20028;-86
2022/04/30 12:08:56;;;;;;;9.20;5.40;;;21.90;99.90;;;;;;4938511;29;20088;-83
2022/04/30 12:11:23;;;;;;;10.00;6.25;;;21.60;99.90;;;;;;4938918;29;20028;-86
2022/04/30 12:14:00;;;;;;;12.00;5.28;;;21.20;99.90;;;;;;4920884;29;20024;-86
2022/04/30 12:16:54;;;;;;;9.77;4.95;;;21.00;99.90;;;;;;4938179;29;20075;-86
2022/04/30 12:25:18;;;;;;;11.80;5.97;;;21.50;99.90;;;;;;4936698;29;20039;-85
2022/04/30 12:27:59;;;;;;;10.77;5.32;;;21.30;99.90;;;;;;4920697;29;20091;-86
2022/04/30 12:30:28;;;;;;;13.07;5.30;;;21.80;99.90;;;;;;4936428;29;20032;-85
2022/04/30 12:33:06;;;;;;;12.50;5.10;;;21.70;99.90;;;;;;4920512;29;20024;-85
2022/04/30 12:35:41;;;;;;;17.63;6.55;;;21.50;99.90;;;;;;4936378;29;20086;-86
2022/04/30 12:38:11;;;;;;;12.48;5.80;;;21.50;99.90;;;;;;4920314;29;20035;-87
2022/04/30 12:40:47;;;;;;;10.27;5.10;;;21.30;99.90;;;;;;4920653;29;20573;-85
2022/04/30 12:43:15;;;;;;;14.02;6.15;;;21.70;99.90;;;;;;4936257;29;20032;-85
2022/04/30 12:45:44;;;;;;;9.80;4.75;;;21.50;99.90;;;;;;4920415;29;20110;-86
2022/04/30 12:48:11;;;;;;;12.70;5.05;;;21.70;99.90;;;;;;4936176;29;20032;-86
2022/04/30 12:50:39;;;;;;;15.30;5.13;;;21.20;99.90;;;;;;4935999;29;20042;-85
2022/04/30 12:53:09;;;;;;;10.48;5.53;;;21.80;99.90;;;;;;4920268;29;20034;-87
2022/04/30 12:55:38;;;;;;;9.55;5.47;;;21.60;99.90;;;;;;4920324;29;20074;-86
2022/04/30 12:58:05;;;;;;;10.52;5.05;;;21.60;99.90;;;;;;4920236;29;20119;-87
2022/04/30 13:00:38;;;;;;;11.70;5.40;;;21.70;99.90;;;;;;4920508;29;20047;-87
2022/04/30 13:03:07;;;;;;;12.05;5.88;;;21.70;99.90;;;;;;4920105;29;20028;-84
2022/04/30 13:05:34;;;;;;;15.25;4.95;;;21.50;99.90;;;;;;4919720;29;20031;-85
2022/04/30 13:08:00;;;;;;;14.32;5.85;;;21.80;99.90;;;;;;4935548;29;20396;-83
2022/04/30 13:16:10;;;;;;;10.45;5.63;;;22.40;99.90;;;;;;4935452;29;20031;-83
2022/04/30 13:18:37;;;;;;;14.43;5.47;;;22.30;99.90;;;;;;4936739;29;20032;-83
2022/04/30 13:21:05;;;;;;;8.65;5.43;;;21.90;99.90;;;;;;4935286;29;20067;-83
2022/04/30 13:23:32;;;;;;;9.13;5.47;;;21.40;99.90;;;;;;4935011;29;20056;-82
2022/04/30 13:26:05;;;;;;;9.20;5.65;;;21.50;99.90;;;;;;4935048;29;20071;-82
2022/04/30 13:28:35;;;;;;;9.30;5.60;;;21.30;99.90;;;;;;4935332;29;20489;-84
2022/04/30 13:31:02;;;;;;;10.32;6.00;;;21.50;99.90;;;;;;4919282;29;20040;-84
2022/04/30 13:33:29;;;;;;;10.70;5.93;;;21.40;99.90;;;;;;4918991;29;20082;-83
2022/04/30 13:35:58;;;;;;;10.93;5.70;;;21.30;99.90;;;;;;4935539;29;20066;-84
2022/04/30 13:38:25;;;;;;;10.60;5.55;;;21.30;99.90;;;;;;4935397;29;20039;-82
2022/04/30 13:40:52;;;;;;;11.57;5.20;;;21.30;99.90;;;;;;4935106;29;20044;-84
2022/04/30 13:43:19;;;;;;;7.80;5.15;;;21.40;99.90;;;;;;4919007;29;20035;-83
2022/04/30 13:45:46;;;;;;;11.70;5.57;;;21.00;99.90;;;;;;4935339;29;20150;-83
2022/04/30 13:48:12;;;;;;;9.82;5.28;;;21.00;99.90;;;;;;4935458;29;20032;-84
2022/04/30 13:50:38;;;;;;;8.43;5.53;;;21.50;99.90;;;;;;4919337;29;20042;-84
2022/04/30 13:53:05;;;;;;;12.55;5.25;;;21.70;99.90;;;;;;4919449;29;20028;-85
2022/04/30 13:55:34;;;;;;;12.20;5.50;;;21.90;99.90;;;;;;4936633;29;20094;-84
2022/04/30 13:58:00;;;;;;;14.00;5.53;;;21.20;99.90;;;;;;4936607;29;20043;-85
2022/04/30 14:00:28;;;;;;;12.77;5.63;;;21.30;99.90;;;;;;4919502;29;20039;-85
2022/04/30 14:02:54;;;;;;;8.82;5.57;;;21.10;99.90;;;;;;4919348;29;20032;-84
2022/04/30 14:05:21;;;;;;;8.52;6.07;;;21.10;99.90;;;;;;4935314;29;20080;-84
2022/04/30 14:07:48;;;;;;;8.43;5.40;;;21.20;99.90;;;;;;4919144;29;20119;-84
2022/04/30 14:10:15;;;;;;;15.07;5.68;;;21.30;99.90;;;;;;4919151;29;20031;-84
2022/04/30 14:12:42;;;;;;;9.80;5.82;;;21.20;99.90;;;;;;4938774;29;20024;-84
2022/04/30 14:15:11;;;;;;;10.02;5.40;;;20.90;99.90;;;;;;4922945;29;20027;-84
2022/04/30 14:20:22;;;;;;;11.43;5.68;;;21.20;99.90;;;;;;4939738;29;20039;-84
2022/04/30 14:22:50;;;;;;;9.73;5.13;;;21.10;99.90;;;;;;4938250;29;20524;-84
2022/04/30 14:25:17;;;;;;;9.23;5.70;;;21.10;99.90;;;;;;4938345;29;20032;-84
2022/04/30 14:27:48;;;;;;;12.10;6.47;;;21.20;99.90;;;;;;4938284;29;20359;-84
2022/04/30 14:30:15;;;;;;;10.93;5.35;;;21.30;99.90;;;;;;4922532;29;20059;-85
2022/04/30 14:32:42;;;;;;;10.23;5.40;;;21.50;99.90;;;;;;4939576;29;20493;-84
2022/04/30 14:35:09;;;;;;;8.13;5.85;;;21.30;99.90;;;;;;4922435;29;20032;-85
2022/04/30 14:37:39;;;;;;;7.45;5.95;;;21.30;99.90;;;;;;4922725;29;20028;-85
2022/04/30 14:40:08;;;;;;;9.55;5.90;;;21.40;99.90;;;;;;4938683;29;20059;-88
2022/04/30 14:42:39;;;;;;;10.38;5.30;;;21.00;99.90;;;;;;4922781;29;20032;-89
2022/04/30 14:45:06;;;;;;;12.00;5.80;;;21.10;99.90;;;;;;4939165;29;20079;-88
2022/04/30 14:47:33;;;;;;;10.25;5.35;;;21.20;99.90;;;;;;4922641;29;20122;-88
2022/04/30 14:49:59;;;;;;;11.13;5.57;;;21.20;99.90;;;;;;4938719;29;20115;-88
2022/04/30 14:52:26;;;;;;;10.70;5.50;;;21.10;99.90;;;;;;4922624;29;20489;-87
2022/04/30 14:54:53;;;;;;;13.82;6.50;;;20.80;99.90;;;;;;4922824;29;20114;-87
2022/04/30 14:57:20;;;;;;;12.15;5.20;;;21.00;99.90;;;;;;4939291;29;20374;-89
2022/04/30 14:59:46;;;;;;;11.93;5.78;;;21.10;99.90;;;;;;4922424;29;20038;-88
2022/04/30 15:02:13;;;;;;;10.20;5.43;;;21.10;99.90;;;;;;4938377;29;20079;-88
2022/04/30 15:04:39;;;;;;;12.95;6.15;;;20.80;99.90;;;;;;4922307;29;20456;-88
2022/04/30 15:07:06;;;;;;;11.90;5.55;;;20.70;99.90;;;;;;4922432;29;20091;-88
2022/04/30 15:09:33;;;;;;;9.20;5.13;;;20.60;99.90;;;;;;4938376;29;20072;-88
2022/04/30 15:11:59;;;;;;;8.88;5.68;;;20.70;99.90;;;;;;4922643;29;20493;-87
2022/04/30 15:14:26;;;;;;;8.50;5.28;;;20.50;99.90;;;;;;4938514;29;20378;-88
2022/04/30 15:16:52;;;;;;;10.52;6.18;;;20.80;99.90;;;;;;4922161;29;20539;-88
2022/04/30 15:19:19;;;;;;;9.75;5.90;;;20.90;99.90;;;;;;4922016;29;20036;-88
2022/04/30 15:21:45;;;;;;;9.73;5.93;;;20.80;99.90;;;;;;4921719;29;20493;-88
2022/04/30 15:24:12;;;;;;;7.88;5.35;;;20.70;99.90;;;;;;4921561;29;20618;-88
2022/04/30 15:26:38;;;;;;;12.13;5.50;;;20.80;99.90;;;;;;4937734;29;20140;-87
2022/04/30 15:29:04;;;;;;;11.88;5.35;;;20.40;99.90;;;;;;4922298;29;20473;-87
2022/04/30 15:31:35;;;;;;;12.50;5.55;;;20.40;99.90;;;;;;4922106;29;20033;-87
2022/04/30 15:34:03;;;;;;;8.63;5.18;;;20.50;99.90;;;;;;4937807;29;20032;-87
2022/04/30 15:36:30;;;;;;;13.52;5.55;;;20.30;99.90;;;;;;4921887;29;20023;-87
2022/04/30 15:38:57;;;;;;;14.05;5.15;;;20.40;99.90;;;;;;4937862;29;20036;-87
2022/04/30 15:41:26;;;;;;;10.00;5.72;;;20.10;99.90;;;;;;4921943;29;20040;-88
2022/04/30 15:43:54;;;;;;;10.05;5.55;;;19.90;99.90;;;;;;4921703;29;20036;-87
2022/04/30 15:51:21;;;;;;;9.70;5.50;;;20.10;99.90;;;;;;4921744;29;20027;-87
2022/04/30 15:51:55;;;;;;;12.10;5.43;;;20.20;99.90;;;;;;4937233;29;20449;-88
2022/04/30 15:54:22;;;;;;;8.27;5.68;;;20.00;99.90;;;;;;4922557;29;20031;-87
2022/04/30 15:56:48;;;;;;;10.50;5.95;;;20.00;99.90;;;;;;4921450;29;20059;-88
2022/04/30 15:59:16;;;;;;;13.00;5.80;;;20.00;99.90;;;;;;4937170;29;20039;-87
2022/04/30 16:01:43;;;;;;;10.30;5.60;;;19.80;99.90;;;;;;4921451;29;20416;-87
2022/04/30 16:04:10;;;;;;;8.70;5.63;;;19.70;99.90;;;;;;4937292;29;20024;-86
2022/04/30 16:06:37;;;;;;;10.95;5.68;;;19.50;99.90;;;;;;4921571;29;20035;-87
2022/04/30 16:09:04;;;;;;;13.57;5.72;;;19.80;99.90;;;;;;4937025;29;20552;-86
2022/04/30 16:11:34;;;;;;;12.32;6.75;;;19.60;99.90;;;;;;4921265;29;20040;-88
2022/04/30 16:14:04;;;;;;;12.85;6.10;;;19.50;99.90;;;;;;4921214;29;20032;-87
2022/04/30 16:16:34;;;;;;;8.32;5.55;;;19.20;99.90;;;;;;4921169;29;20087;-87
2022/04/30 16:19:01;;;;;;;7.88;5.35;;;19.20;99.90;;;;;;4921258;29;20102;-88
2022/04/30 16:21:29;;;;;;;6.55;5.20;;;19.10;99.90;;;;;;4936537;29;20201;-88
2022/04/30 16:23:57;;;;;;;9.30;5.22;;;19.00;99.90;;;;;;4906182;29;20028;-87
2022/04/30 16:26:24;;;;;;;11.48;5.68;;;19.00;99.90;;;;;;4905407;29;20040;-88
2022/04/30 16:28:50;;;;;;;8.40;5.53;;;18.90;99.90;;;;;;4905305;29;20023;-86
2022/04/30 16:31:17;;;;;;;10.00;5.10;;;19.00;99.90;;;;;;4905246;29;20031;-87
2022/04/30 16:33:43;;;;;;;7.43;5.70;;;18.80;99.90;;;;;;4904807;29;20028;-87
2022/04/30 16:36:10;;;;;;;10.45;5.85;;;18.80;99.90;;;;;;4905126;29;20031;-87
2022/04/30 16:38:37;;;;;;;9.43;4.95;;;18.90;99.90;;;;;;4905097;29;20027;-87
2022/04/30 16:41:05;;;;;;;9.07;4.93;;;18.90;99.90;;;;;;4906249;29;20043;-87
2022/04/30 16:43:35;;;;;;;10.85;5.22;;;18.70;99.90;;;;;;4904932;29;20500;-87
2022/04/30 16:46:04;;;;;;;14.02;7.15;;;18.70;99.90;;;;;;4904937;29;20032;-87
2022/04/30 16:48:34;;;;;;;20.73;8.15;;;18.60;99.90;;;;;;4905101;29;20034;-88
2022/04/30 16:53:45;;;;;;;10.30;5.45;;;18.60;99.90;;;;;;4920408;29;20034;-87
2022/04/30 16:58:57;;;;;;;10.70;5.20;;;18.50;99.90;;;;;;4920520;29;20028;-87
2022/04/30 17:01:24;;;;;;;8.00;5.03;;;18.50;99.90;;;;;;4904594;29;20060;-87
2022/04/30 17:03:50;;;;;;;8.77;4.80;;;18.40;99.90;;;;;;4904600;29;20028;-87
2022/04/30 17:06:17;;;;;;;6.97;4.57;;;18.40;99.90;;;;;;4904580;29;20055;-87
2022/04/30 17:08:44;;;;;;;7.97;5.05;;;18.20;99.90;;;;;;4904674;29;20019;-87
2022/04/30 17:11:11;;;;;;;9.82;4.30;;;18.20;99.90;;;;;;4904673;29;20058;-87
2022/04/30 17:13:39;;;;;;;10.38;4.72;;;18.10;99.90;;;;;;4904859;29;20471;-87
2022/04/30 17:16:08;;;;;;;14.20;4.93;;;18.10;99.90;;;;;;4904676;29;20034;-86
2022/04/30 17:18:35;;;;;;;11.13;4.85;;;18.00;99.90;;;;;;4904439;29;20091;-87
2022/04/30 17:21:03;;;;;;;13.93;5.32;;;18.00;99.90;;;;;;4904475;29;20035;-88
2022/04/30 17:23:31;;;;;;;11.70;4.55;;;17.90;99.90;;;;;;4918911;29;20047;-87
2022/04/30 17:26:02;;;;;;;9.77;4.60;;;17.70;99.90;;;;;;4920016;29;20591;-87
2022/04/30 17:28:29;;;;;;;8.32;5.03;;;17.60;99.90;;;;;;4935904;29;20126;-87
2022/04/30 17:39:11;;;;;;;7.60;4.70;;;17.40;99.90;;;;;;4935766;29;20034;-87
2022/04/30 17:41:41;;;;;;;10.10;4.75;;;17.20;99.90;;;;;;4935770;29;20048;-87
2022/04/30 17:44:10;;;;;;;14.10;5.10;;;17.20;99.90;;;;;;4920168;29;20078;-87
2022/04/30 17:46:37;;;;;;;11.40;5.45;;;17.20;99.90;;;;;;4921998;29;20040;-88
2022/04/30 17:49:04;;;;;;;13.55;6.07;;;17.10;99.90;;;;;;4939759;29;20035;-87
2022/04/30 17:51:32;;;;;;;22.33;7.18;;;17.10;99.90;;;;;;4923762;29;20028;-87
2022/04/30 17:53:58;;;;;;;19.92;8.32;;;17.10;99.90;;;;;;4925726;29;20164;-87
2022/04/30 17:56:25;;;;;;;17.85;8.02;;;17.10;99.90;;;;;;4923668;29;20028;-87
2022/04/30 17:58:52;;;;;;;18.33;7.55;;;17.20;99.90;;;;;;4923598;29;20035;-87
2022/04/30 18:01:18;;;;;;;19.17;7.10;;;16.90;99.90;;;;;;4939540;29;20040;-87
2022/04/30 18:03:45;;;;;;;20.23;7.30;;;16.90;99.90;;;;;;4923530;29;20122;-87
2022/04/30 18:06:11;;;;;;;16.85;7.10;;;16.90;99.90;;;;;;4923491;29;20035;-88
2022/04/30 18:08:39;;;;;;;24.08;8.25;;;16.80;99.90;;;;;;4923462;29;20417;-88
2022/04/30 18:11:06;;;;;;;15.02;6.47;;;16.70;99.90;;;;;;4923467;29;20031;-87
2022/04/30 18:13:40;;;;;;;13.60;6.55;;;16.70;99.90;;;;;;4923486;29;20028;-87
2022/04/30 18:16:07;;;;;;;12.00;5.80;;;16.70;99.90;;;;;;4939321;29;20088;-87
2022/04/30 18:18:35;;;;;;;12.77;6.05;;;16.70;99.90;;;;;;4923185;29;20171;-88
2022/04/30 18:21:02;;;;;;;12.43;5.40;;;16.70;99.90;;;;;;4939115;29;20040;-86
2022/04/30 18:23:28;;;;;;;14.98;5.82;;;16.60;99.90;;;;;;4922941;29;20411;-86
2022/04/30 18:25:55;;;;;;;13.02;6.10;;;16.50;99.90;;;;;;4923519;29;20032;-89
2022/04/30 18:28:21;;;;;;;15.13;5.53;;;16.40;99.90;;;;;;4938881;29;20118;-87
2022/04/30 18:30:48;;;;;;;14.57;5.78;;;16.40;99.90;;;;;;4923196;29;20067;-88
2022/04/30 18:33:15;;;;;;;16.17;6.18;;;16.30;99.90;;;;;;4938893;29;20030;-88
2022/04/30 18:35:42;;;;;;;14.57;6.10;;;16.30;99.90;;;;;;4923227;29;20032;-86
2022/04/30 18:38:09;;;;;;;12.85;5.55;;;16.40;99.90;;;;;;4939788;29;20035;-87
2022/04/30 18:40:37;;;;;;;15.25;5.78;;;16.40;99.90;;;;;;4922848;29;20042;-86
2022/04/30 18:43:15;;;;;;;12.38;5.95;;;16.20;99.90;;;;;;4922907;29;20123;-89
2022/04/30 18:45:49;;;;;;;12.10;5.90;;;16.20;99.90;;;;;;4938713;29;20065;-87
2022/04/30 18:48:16;;;;;;;10.15;5.95;;;16.00;99.90;;;;;;4922768;29;20036;-84
2022/04/30 18:50:56;;;;;;;14.35;5.93;;;16.10;99.90;;;;;;4923292;29;20489;-85
2022/04/30 18:53:29;;;;;;;15.63;6.18;;;16.10;99.90;;;;;;4941652;29;20071;-85
2022/04/30 19:01:53;;;;;;;16.13;7.13;;;16.00;99.90;;;;;;4847625;29;20068;-86
2022/04/30 19:04:20;;;;;;;18.15;7.40;;;15.90;99.90;;;;;;4895674;29;20042;-86
2022/04/30 19:06:46;;;;;;;11.73;6.30;;;15.80;99.90;;;;;;4926244;29;20036;-85
2022/04/30 19:09:16;;;;;;;19.30;7.50;;;15.90;99.90;;;;;;4924750;29;20461;-86
2022/04/30 19:11:43;;;;;;;11.82;6.43;;;15.90;99.90;;;;;;4925209;29;20027;-86
2022/04/30 19:14:10;;;;;;;15.45;7.00;;;15.80;99.90;;;;;;4922774;29;20489;-86
2022/04/30 19:16:36;;;;;;;21.13;7.07;;;15.60;99.90;;;;;;4924342;29;20476;-88
2022/04/30 19:19:04;;;;;;;18.98;6.95;;;15.60;99.90;;;;;;4927909;29;20028;-89
2022/04/30 19:21:30;;;;;;;11.88;6.35;;;15.70;99.90;;;;;;4923741;29;20039;-89
2022/04/30 19:24:00;;;;;;;18.95;7.32;;;15.60;99.90;;;;;;4925403;29;20394;-89
2022/04/30 19:26:26;;;;;;;18.10;7.10;;;15.60;99.90;;;;;;4928910;29;20417;-88
2022/04/30 19:28:52;;;;;;;18.23;7.60;;;15.60;99.90;;;;;;4924203;29;20031;-89
2022/04/30 19:31:22;;;;;;;18.85;7.63;;;15.50;99.90;;;;;;4908806;29;20059;-88
2022/04/30 19:33:48;;;;;;;14.93;7.32;;;15.50;99.90;;;;;;4922984;29;20035;-89
2022/04/30 19:36:16;;;;;;;16.50;7.35;;;15.40;99.90;;;;;;4922146;29;20485;-88
2022/04/30 19:38:45;;;;;;;19.38;8.02;;;15.50;99.90;;;;;;4922586;29;20067;-89
2022/04/30 19:41:13;;;;;;;19.42;8.05;;;15.50;99.90;;;;;;4921890;29;20044;-88
2022/04/30 19:43:39;;;;;;;18.55;7.28;;;15.50;99.90;;;;;;4921780;29;20485;-89
2022/04/30 19:46:06;;;;;;;16.20;7.38;;;15.50;99.90;;;;;;4922845;29;20046;-89
2022/04/30 19:48:33;;;;;;;19.73;7.95;;;15.60;99.90;;;;;;4921699;29;20393;-88
2022/04/30 19:51:00;;;;;;;15.55;7.57;;;15.60;99.90;;;;;;4921595;29;20028;-89
2022/04/30 19:53:27;;;;;;;20.70;8.55;;;15.50;99.90;;;;;;4921545;29;20028;-88
2022/04/30 19:55:54;;;;;;;19.45;7.75;;;15.50;99.90;;;;;;4905798;29;20032;-88
2022/04/30 19:58:20;;;;;;;20.02;7.55;;;15.40;99.90;;;;;;4895122;29;20440;-89
2022/04/30 20:00:47;;;;;;;18.60;7.65;;;15.50;99.90;;;;;;4868082;29;20040;-87
2022/04/30 20:03:13;;;;;;;17.27;8.18;;;15.40;99.90;;;;;;4868521;29;20474;-88
2022/04/30 20:05:40;;;;;;;25.02;8.50;;;15.40;99.90;;;;;;4868417;29;20028;-86
2022/04/30 20:08:07;;;;;;;14.45;7.47;;;15.40;99.90;;;;;;4883275;29;20055;-88
2022/04/30 20:18:53;;;;;;;23.20;8.05;;;15.40;99.90;;;;;;4883365;29;20148;-88
2022/04/30 20:21:22;;;;;;;17.67;8.23;;;15.40;99.90;;;;;;4867912;29;20075;-87
2022/04/30 20:23:50;;;;;;;23.08;8.48;;;15.40;99.90;;;;;;4883436;29;20029;-87
2022/04/30 20:26:18;;;;;;;15.73;9.00;;;15.40;99.90;;;;;;4868043;29;20037;-86
2022/04/30 20:28:48;;;;;;;18.48;7.93;;;15.50;99.90;;;;;;4898772;29;20037;-88
2022/04/30 20:36:44;;;;;;;18.25;7.88;;;15.40;99.90;;;;;;4883130;29;20028;-86
2022/04/30 20:39:16;;;;;;;20.95;7.28;;;15.40;99.90;;;;;;4883096;29;20394;-86
2022/04/30 20:41:43;;;;;;;22.60;7.90;;;15.40;99.90;;;;;;4883061;29;20043;-85
2022/04/30 20:44:10;;;;;;;16.75;8.18;;;15.40;99.90;;;;;;4867514;29;20021;-86
2022/04/30 20:46:38;;;;;;;17.85;7.70;;;15.50;99.90;;;;;;4883017;29;20043;-87
2022/04/30 20:49:06;;;;;;;13.82;7.75;;;15.40;99.90;;;;;;4867602;29;20040;-87
2022/04/30 20:51:34;;;;;;;23.95;9.27;;;15.40;99.90;;;;;;4883122;29;20036;-86
2022/04/30 20:54:04;;;;;;;18.95;7.63;;;15.40;99.90;;;;;;4867441;29;20391;-89
2022/04/30 20:56:33;;;;;;;16.05;8.05;;;15.40;99.90;;;;;;4898636;29;20057;-88
2022/04/30 20:59:03;;;;;;;16.63;7.60;;;15.40;99.90;;;;;;4867134;29;20135;-89
2022/04/30 21:01:29;;;;;;;22.25;8.18;;;15.40;99.90;;;;;;4867336;29;20578;-89
2022/04/30 21:03:58;;;;;;;13.43;8.07;;;15.30;99.90;;;;;;4882690;29;20167;-90
2022/04/30 21:06:26;;;;;;;17.75;9.10;;;15.30;99.90;;;;;;4882841;29;20119;-89
2022/04/30 21:08:52;;;;;;;17.15;9.13;;;15.30;99.90;;;;;;4882877;29;20148;-88
2022/04/30 21:11:20;;;;;;;23.13;9.18;;;15.30;99.90;;;;;;4882797;29;20033;-89
2022/04/30 21:13:47;;;;;;;22.50;9.10;;;15.30;99.90;;;;;;4867037;29;20123;-87
2022/04/30 21:16:15;;;;;;;20.55;9.15;;;15.20;99.90;;;;;;4882478;29;20135;-88
2022/04/30 21:18:42;;;;;;;17.60;8.77;;;15.20;99.90;;;;;;4867084;29;20390;-89
2022/04/30 21:21:08;;;;;;;15.38;8.18;;;15.30;99.90;;;;;;4866209;29;20075;-89
2022/04/30 21:23:36;;;;;;;16.20;8.65;;;15.30;99.90;;;;;;4898419;29;20052;-89
2022/04/30 21:26:07;;;;;;;15.75;8.38;;;15.30;99.90;;;;;;4882604;29;20486;-88
2022/04/30 21:28:41;;;;;;;20.10;8.82;;;15.30;99.90;;;;;;4867251;29;20159;-87
2022/04/30 21:31:09;;;;;;;19.30;8.95;;;15.20;99.90;;;;;;4882999;29;20462;-89
2022/04/30 21:33:36;;;;;;;17.02;8.85;;;15.20;99.90;;;;;;4867220;29;20064;-88
2022/04/30 21:36:03;;;;;;;20.10;8.48;;;15.20;99.90;;;;;;4882449;29;20032;-89
2022/04/30 21:38:30;;;;;;;15.85;8.25;;;15.20;99.90;;;;;;4866814;29;20468;-86
2022/04/30 21:43:44;;;;;;;14.02;7.88;;;15.20;99.90;;;;;;4882267;29;20123;-88
2022/04/30 21:46:12;;;;;;;13.55;7.93;;;15.20;99.90;;;;;;4882838;29;20029;-88
2022/04/30 21:48:39;;;;;;;17.90;7.43;;;15.20;99.90;;;;;;4867137;29;20072;-85
2022/04/30 21:51:06;;;;;;;14.63;8.02;;;15.20;99.90;;;;;;4866933;29;20032;-89
2022/04/30 21:53:33;;;;;;;18.48;7.93;;;15.20;99.90;;;;;;4882286;29;20036;-88
2022/04/30 22:01:31;;;;;;;14.13;8.30;;;15.20;99.90;;;;;;4919785;29;20473;-89
2022/04/30 22:03:58;;;;;;;12.18;7.50;;;15.20;99.90;;;;;;4919613;29;20024;-88
2022/04/30 22:06:24;;;;;;;19.83;8.98;;;15.30;99.90;;;;;;4920024;29;20059;-87
2022/04/30 22:08:52;;;;;;;25.13;9.48;;;15.30;99.90;;;;;;4919777;29;20031;-87
2022/04/30 22:11:23;;;;;;;21.42;9.82;;;15.10;99.90;;;;;;4919582;29;20031;-87
2022/04/30 22:13:50;;;;;;;24.42;11.05;;;14.80;99.90;;;;;;4919527;29;20032;-87
2022/04/30 22:16:17;;;;;;;22.95;10.40;;;14.60;99.90;;;;;;4903883;29;20059;-87